Time;durP1;ratioP1;P1;durP2;ratioP2;P2;SDS_P1;SDS_P2;PMS_P1;PMS_P2;Temp;Humidity;BMP_temperature;BMP_pressure;BME280_temperature;BME280_humidity;BME280_pressure;Samples;Min_cycle;Max_cycle;Signal;HPM_P1;HPM_P2
2023/08/02 00:02:24;;;;;;;2.05;0.65;;;;;;;;;;5089147;28;20081;-69
2023/08/02 00:04:52;;;;;;;4.57;0.90;;;;;;;;;;5066181;28;20044;-69
2023/08/02 00:07:19;;;;;;;2.97;0.85;;;;;;;;;;5087746;28;20065;-68
2023/08/02 00:09:46;;;;;;;1.20;0.60;;;;;;;;;;5083425;28;20036;-69
2023/08/02 00:12:14;;;;;;;3.55;0.75;;;;;;;;;;5082761;28;20063;-69
2023/08/02 00:14:42;;;;;;;3.85;1.00;;;;;;;;;;5086840;28;20052;-69
2023/08/02 00:17:09;;;;;;;2.30;0.75;;;;;;;;;;5087829;28;20063;-69
2023/08/02 00:19:37;;;;;;;3.28;1.00;;;;;;;;;;5086136;28;20040;-68
2023/08/02 00:22:04;;;;;;;3.10;0.80;;;;;;;;;;5081431;28;20044;-68
2023/08/02 00:24:31;;;;;;;4.30;1.85;;;;;;;;;;5087925;28;20082;-69
2023/08/02 00:26:58;;;;;;;2.42;0.80;;;;;;;;;;5087150;28;20071;-68
2023/08/02 00:29:27;;;;;;;3.63;1.00;;;;;;;;;;5087961;28;20052;-68
2023/08/02 00:31:54;;;;;;;2.85;0.90;;;;;;;;;;5083013;28;20075;-68
2023/08/02 00:34:21;;;;;;;3.22;0.88;;;;;;;;;;5084905;28;20066;-69
2023/08/02 00:36:49;;;;;;;1.38;0.77;;;;;;;;;;5085174;28;20052;-69
2023/08/02 00:39:18;;;;;;;3.70;0.85;;;;;;;;;;5088078;28;20052;-69
2023/08/02 00:41:45;;;;;;;3.00;1.05;;;;;;;;;;5085611;28;20048;-69
2023/08/02 00:44:12;;;;;;;3.85;0.98;;;;;;;;;;5086676;28;20122;-67
2023/08/02 00:46:41;;;;;;;3.75;0.90;;;;;;;;;;5088414;28;20164;-69
2023/08/02 00:49:10;;;;;;;3.90;1.20;;;;;;;;;;5087345;28;20040;-68
2023/08/02 00:51:38;;;;;;;4.50;1.00;;;;;;;;;;5087785;28;20056;-68
2023/08/02 00:54:05;;;;;;;4.38;1.30;;;;;;;;;;5084362;28;20154;-68
2023/08/02 00:56:33;;;;;;;2.67;1.10;;;;;;;;;;5085286;28;20077;-69
2023/08/02 00:59:00;;;;;;;7.03;1.40;;;;;;;;;;5086966;28;20060;-69
2023/08/02 01:01:27;;;;;;;5.20;2.03;;;;;;;;;;5087149;28;20062;-68
2023/08/02 01:03:56;;;;;;;4.43;1.33;;;;;;;;;;5086189;28;20048;-69
2023/08/02 01:06:26;;;;;;;3.85;1.30;;;;;;;;;;5082845;28;20052;-69
2023/08/02 01:08:56;;;;;;;4.60;1.70;;;;;;;;;;5084255;28;20475;-69
2023/08/02 01:11:26;;;;;;;4.32;1.40;;;;;;;;;;5079760;28;20055;-69
2023/08/02 01:13:54;;;;;;;5.80;1.65;;;;;;;;;;5066309;28;20051;-69
2023/08/02 01:16:23;;;;;;;3.83;1.50;;;;;;;;;;5081079;28;20072;-69
2023/08/02 01:18:51;;;;;;;5.60;1.70;;;;;;;;;;5082202;28;20119;-69
2023/08/02 01:21:19;;;;;;;3.75;1.80;;;;;;;;;;5083991;28;20679;-69
2023/08/02 01:23:46;;;;;;;4.15;1.65;;;;;;;;;;5083139;28;20489;-69
2023/08/02 01:26:14;;;;;;;5.88;2.05;;;;;;;;;;5083398;28;20051;-69
2023/08/02 01:28:44;;;;;;;4.00;1.90;;;;;;;;;;5061316;28;20059;-69
2023/08/02 01:31:12;;;;;;;5.55;1.83;;;;;;;;;;5080736;28;20494;-69
2023/08/02 01:33:47;;;;;;;6.15;1.80;;;;;;;;;;5079847;28;20051;-69
2023/08/02 01:36:14;;;;;;;6.00;2.20;;;;;;;;;;5079407;28;20056;-70
2023/08/02 01:38:43;;;;;;;4.85;2.30;;;;;;;;;;5084774;28;20123;-69
2023/08/02 01:41:10;;;;;;;3.42;2.00;;;;;;;;;;5084675;28;20102;-69
2023/08/02 01:43:38;;;;;;;7.30;2.10;;;;;;;;;;5082339;28;20048;-69
2023/08/02 01:46:05;;;;;;;4.35;2.00;;;;;;;;;;5085025;28;20102;-69
2023/08/02 01:48:32;;;;;;;4.82;2.30;;;;;;;;;;5084810;28;20040;-69
2023/08/02 01:50:59;;;;;;;4.80;2.30;;;;;;;;;;5079059;28;20053;-69
2023/08/02 01:53:27;;;;;;;4.72;1.95;;;;;;;;;;5074553;28;20047;-69
2023/08/02 01:55:55;;;;;;;8.98;2.90;;;;;;;;;;5084357;28;20056;-69
2023/08/02 01:58:22;;;;;;;4.75;2.60;;;;;;;;;;5080183;28;20059;-69
2023/08/02 02:00:49;;;;;;;7.47;2.50;;;;;;;;;;5084774;28;20234;-69
2023/08/02 02:03:17;;;;;;;7.35;2.60;;;;;;;;;;5081963;28;20131;-70
2023/08/02 02:05:52;;;;;;;7.57;2.30;;;;;;;;;;5083434;28;20137;-69
2023/08/02 02:08:19;;;;;;;5.88;2.58;;;;;;;;;;5083760;28;20052;-68
2023/08/02 02:10:49;;;;;;;6.57;2.03;;;;;;;;;;5079252;28;20048;-70
2023/08/02 02:13:19;;;;;;;5.00;2.15;;;;;;;;;;5081019;28;20113;-69
2023/08/02 02:15:46;;;;;;;7.20;2.50;;;;;;;;;;5086626;28;20044;-69
2023/08/02 02:18:14;;;;;;;5.13;2.70;;;;;;;;;;5085995;28;20487;-70
2023/08/02 02:20:41;;;;;;;5.03;2.33;;;;;;;;;;5089536;28;20060;-69
2023/08/02 02:23:08;;;;;;;8.88;2.58;;;;;;;;;;5087418;28;20051;-69
2023/08/02 02:25:35;;;;;;;5.60;2.40;;;;;;;;;;5086101;28;20052;-69
2023/08/02 02:28:02;;;;;;;6.22;2.50;;;;;;;;;;5090245;28;20056;-68
2023/08/02 02:30:31;;;;;;;4.28;2.42;;;;;;;;;;5086124;28;20048;-69
2023/08/02 02:32:58;;;;;;;8.60;2.63;;;;;;;;;;5085348;28;20067;-69
2023/08/02 02:35:26;;;;;;;4.35;2.38;;;;;;;;;;5089230;28;20044;-69
2023/08/02 02:37:54;;;;;;;4.22;2.40;;;;;;;;;;5087841;28;20132;-69
2023/08/02 02:40:21;;;;;;;5.75;2.60;;;;;;;;;;5090522;28;20052;-69
2023/08/02 02:42:48;;;;;;;6.32;2.60;;;;;;;;;;5087043;28;20053;-69
2023/08/02 02:45:15;;;;;;;8.10;2.33;;;;;;;;;;5088884;28;20130;-69
2023/08/02 02:47:44;;;;;;;6.60;2.95;;;;;;;;;;5087241;28;20045;-69
2023/08/02 02:50:11;;;;;;;8.50;2.42;;;;;;;;;;5088424;28;20044;-69
2023/08/02 02:52:40;;;;;;;4.90;2.40;;;;;;;;;;5088814;28;20187;-69
2023/08/02 02:55:08;;;;;;;8.88;3.10;;;;;;;;;;5088229;28;20047;-68
2023/08/02 02:57:35;;;;;;;4.97;2.50;;;;;;;;;;5086870;28;20048;-69
2023/08/02 03:00:05;;;;;;;4.78;2.70;;;;;;;;;;5071342;28;20044;-69
2023/08/02 03:02:32;;;;;;;4.07;2.50;;;;;;;;;;5066865;28;20053;-69
2023/08/02 03:05:01;;;;;;;7.43;2.85;;;;;;;;;;5085081;28;20047;-69
2023/08/02 03:07:28;;;;;;;4.43;2.20;;;;;;;;;;5085533;28;20522;-68
2023/08/02 03:09:55;;;;;;;6.55;2.33;;;;;;;;;;5083959;28;20048;-68
2023/08/02 03:12:23;;;;;;;4.97;2.33;;;;;;;;;;5084903;28;20140;-69
2023/08/02 03:14:50;;;;;;;9.98;2.42;;;;;;;;;;5090704;28;20052;-69
2023/08/02 03:17:18;;;;;;;7.95;2.60;;;;;;;;;;5085933;28;20055;-69
2023/08/02 03:19:45;;;;;;;7.22;2.53;;;;;;;;;;5088799;28;20123;-69
2023/08/02 03:22:14;;;;;;;8.52;2.78;;;;;;;;;;5084685;28;20080;-69
2023/08/02 03:24:41;;;;;;;6.45;2.25;;;;;;;;;;5071132;28;20059;-68
2023/08/02 03:27:08;;;;;;;5.60;2.30;;;;;;;;;;5087925;28;20048;-69
2023/08/02 03:29:36;;;;;;;8.25;2.72;;;;;;;;;;5087780;28;20055;-69
2023/08/02 03:32:04;;;;;;;7.45;2.88;;;;;;;;;;5086643;28;20093;-69
2023/08/02 03:34:31;;;;;;;9.95;2.45;;;;;;;;;;5071607;28;20167;-68
2023/08/02 03:36:58;;;;;;;6.88;2.42;;;;;;;;;;5084565;28;20044;-68
2023/08/02 03:39:27;;;;;;;9.57;3.00;;;;;;;;;;5083746;28;20049;-69
2023/08/02 03:41:55;;;;;;;10.30;3.05;;;;;;;;;;5084100;28;20044;-69
2023/08/02 03:44:22;;;;;;;7.93;3.10;;;;;;;;;;5082744;28;20113;-69
2023/08/02 03:46:49;;;;;;;5.93;2.50;;;;;;;;;;5089111;28;20051;-69
2023/08/02 03:49:17;;;;;;;9.63;3.03;;;;;;;;;;5082158;28;20476;-69
2023/08/02 03:51:44;;;;;;;8.43;2.88;;;;;;;;;;5070762;28;20553;-69
2023/08/02 03:54:11;;;;;;;6.72;2.75;;;;;;;;;;5085434;28;20281;-69
2023/08/02 03:56:40;;;;;;;10.13;2.85;;;;;;;;;;5086378;28;20131;-69
2023/08/02 03:59:07;;;;;;;14.05;3.08;;;;;;;;;;5085397;28;20596;-69
2023/08/02 04:01:34;;;;;;;10.65;2.67;;;;;;;;;;5089391;28;20048;-69
2023/08/02 04:04:01;;;;;;;6.88;2.53;;;;;;;;;;5081122;28;20059;-69
2023/08/02 04:06:29;;;;;;;7.32;3.10;;;;;;;;;;5081902;28;20123;-69
2023/08/02 04:08:56;;;;;;;11.77;3.20;;;;;;;;;;5080939;28;20044;-69
2023/08/02 04:11:23;;;;;;;10.48;2.80;;;;;;;;;;5079136;28;20047;-69
2023/08/02 04:13:52;;;;;;;10.50;2.65;;;;;;;;;;5083910;28;20052;-69
2023/08/02 04:16:19;;;;;;;13.35;3.63;;;;;;;;;;5088392;28;20040;-69
2023/08/02 04:18:46;;;;;;;11.98;3.38;;;;;;;;;;5087975;28;20055;-69
2023/08/02 04:21:18;;;;;;;8.77;3.00;;;;;;;;;;5089058;28;20055;-69
2023/08/02 04:23:46;;;;;;;10.73;3.33;;;;;;;;;;5085276;28;20482;-69
2023/08/02 04:26:13;;;;;;;7.82;2.83;;;;;;;;;;5085879;28;20051;-69
2023/08/02 04:28:40;;;;;;;10.80;3.60;;;;;;;;;;5088126;28;20059;-69
2023/08/02 04:31:09;;;;;;;10.32;3.35;;;;;;;;;;5081448;28;20040;-70
2023/08/02 04:33:36;;;;;;;9.82;3.78;;;;;;;;;;5086162;28;20040;-69
2023/08/02 04:36:03;;;;;;;13.00;3.70;;;;;;;;;;5085302;28;20482;-69
2023/08/02 04:38:31;;;;;;;11.95;3.42;;;;;;;;;;5087446;28;20517;-69
2023/08/02 04:40:58;;;;;;;10.10;3.15;;;;;;;;;;5084653;28;20063;-69
2023/08/02 04:43:25;;;;;;;6.93;3.05;;;;;;;;;;5086144;28;20109;-69
2023/08/02 04:45:53;;;;;;;10.52;3.38;;;;;;;;;;5086348;28;20532;-69
2023/08/02 04:48:21;;;;;;;7.53;3.22;;;;;;;;;;5082633;28;20076;-69
2023/08/02 04:50:48;;;;;;;11.55;3.50;;;;;;;;;;5083388;28;20096;-69
2023/08/02 04:53:16;;;;;;;9.20;3.05;;;;;;;;;;5068479;28;20044;-69
2023/08/02 04:55:43;;;;;;;10.07;3.25;;;;;;;;;;5082227;28;20717;-69
2023/08/02 04:58:10;;;;;;;14.23;3.50;;;;;;;;;;5085684;28;20487;-69
2023/08/02 05:00:38;;;;;;;11.77;3.25;;;;;;;;;;5084925;28;20051;-68
2023/08/02 05:03:05;;;;;;;11.95;3.20;;;;;;;;;;5086580;28;20064;-69
2023/08/02 05:05:34;;;;;;;10.95;3.28;;;;;;;;;;5065857;28;20056;-69
2023/08/02 05:08:01;;;;;;;7.30;3.42;;;;;;;;;;5082965;28;20048;-70
2023/08/02 05:10:29;;;;;;;10.40;3.20;;;;;;;;;;5084885;28;20048;-69
2023/08/02 05:12:56;;;;;;;12.10;3.33;;;;;;;;;;5079706;28;20056;-69
2023/08/02 05:15:23;;;;;;;12.57;3.65;;;;;;;;;;5086131;28;20552;-69
2023/08/02 05:17:51;;;;;;;13.23;3.65;;;;;;;;;;5083789;28;20052;-69
2023/08/02 05:20:18;;;;;;;10.10;3.83;;;;;;;;;;5085273;28;20048;-70
2023/08/02 05:22:47;;;;;;;10.70;3.83;;;;;;;;;;5083987;28;20056;-70
2023/08/02 05:25:14;;;;;;;13.73;4.07;;;;;;;;;;5080360;28;20090;-69
2023/08/02 05:27:41;;;;;;;11.32;4.30;;;;;;;;;;5087335;28;20054;-69
2023/08/02 05:30:09;;;;;;;10.68;4.43;;;;;;;;;;5081455;28;20051;-69
2023/08/02 05:32:36;;;;;;;9.88;3.97;;;;;;;;;;5079535;28;20044;-69
2023/08/02 05:35:04;;;;;;;9.38;4.03;;;;;;;;;;5080731;28;20040;-69
2023/08/02 05:37:31;;;;;;;10.63;4.13;;;;;;;;;;5085288;28;20060;-69
2023/08/02 05:40:00;;;;;;;12.48;4.20;;;;;;;;;;5084170;28;20041;-69
2023/08/02 05:42:27;;;;;;;10.27;4.32;;;;;;;;;;5069128;28;20058;-70
2023/08/02 05:44:54;;;;;;;9.55;4.10;;;;;;;;;;5086470;28;20052;-69
2023/08/02 05:47:21;;;;;;;10.60;4.55;;;;;;;;;;5087670;28;20531;-69
2023/08/02 05:49:49;;;;;;;7.93;3.92;;;;;;;;;;5083672;28;20044;-69
2023/08/02 05:52:16;;;;;;;14.95;4.90;;;;;;;;;;5087629;28;20044;-69
2023/08/02 05:54:43;;;;;;;15.70;4.60;;;;;;;;;;5086039;28;20395;-69
2023/08/02 05:57:12;;;;;;;10.32;4.30;;;;;;;;;;5087224;28;20051;-69
2023/08/02 05:59:39;;;;;;;8.63;4.07;;;;;;;;;;5091214;28;20052;-69
2023/08/02 06:02:08;;;;;;;10.93;4.28;;;;;;;;;;5087353;28;20407;-69
2023/08/02 06:04:37;;;;;;;10.73;4.63;;;;;;;;;;5089497;28;20052;-69
2023/08/02 06:07:05;;;;;;;9.32;4.25;;;;;;;;;;5090277;28;20731;-69
2023/08/02 06:09:32;;;;;;;12.15;4.55;;;;;;;;;;5086655;28;20050;-69
2023/08/02 06:11:59;;;;;;;13.18;4.68;;;;;;;;;;5091011;28;20056;-70
2023/08/02 06:14:28;;;;;;;11.32;4.20;;;;;;;;;;5086036;28;20060;-70
2023/08/02 06:16:55;;;;;;;8.57;3.95;;;;;;;;;;5087021;28;20048;-69
2023/08/02 06:19:23;;;;;;;8.20;3.97;;;;;;;;;;5090541;28;20051;-69
2023/08/02 06:21:50;;;;;;;7.72;3.72;;;;;;;;;;5088727;28;20537;-69
2023/08/02 06:24:17;;;;;;;9.00;3.92;;;;;;;;;;5088947;28;20482;-70
2023/08/02 06:26:44;;;;;;;9.50;4.05;;;;;;;;;;5090380;28;20138;-70
2023/08/02 06:29:12;;;;;;;10.93;4.15;;;;;;;;;;5064152;28;20063;-69
2023/08/02 06:31:40;;;;;;;8.70;3.83;;;;;;;;;;5089974;28;20060;-69
2023/08/02 06:34:07;;;;;;;9.20;4.00;;;;;;;;;;5088936;28;20052;-69
2023/08/02 06:36:38;;;;;;;8.30;3.70;;;;;;;;;;5083341;28;20514;-69
2023/08/02 06:39:05;;;;;;;8.82;3.60;;;;;;;;;;5086210;28;20523;-69
2023/08/02 06:41:32;;;;;;;11.23;4.38;;;;;;;;;;5091495;28;20436;-69
2023/08/02 06:43:59;;;;;;;9.90;4.10;;;;;;;;;;5090290;28;20052;-69
2023/08/02 06:46:27;;;;;;;12.00;4.60;;;;;;;;;;5089935;28;20052;-69
2023/08/02 06:48:55;;;;;;;10.40;4.20;;;;;;;;;;5085860;28;20044;-69
2023/08/02 06:51:22;;;;;;;8.20;4.70;;;;;;;;;;5087530;28;20430;-69
2023/08/02 06:53:51;;;;;;;10.65;3.90;;;;;;;;;;5070928;28;20074;-69
2023/08/02 06:56:18;;;;;;;8.77;4.15;;;;;;;;;;5087502;28;20055;-69
2023/08/02 06:58:46;;;;;;;6.90;3.75;;;;;;;;;;5090900;28;20051;-69
2023/08/02 07:01:14;;;;;;;6.22;3.75;;;;;;;;;;5089190;28;20048;-69
2023/08/02 07:03:41;;;;;;;9.60;3.85;;;;;;;;;;5090820;28;20510;-69
2023/08/02 07:06:13;;;;;;;9.60;4.00;;;;;;;;;;5086690;28;20617;-69
2023/08/02 07:08:41;;;;;;;12.73;3.60;;;;;;;;;;5087192;28;20075;-69
2023/08/02 07:11:08;;;;;;;8.32;4.00;;;;;;;;;;5087922;28;20908;-69
2023/08/02 07:13:36;;;;;;;6.50;3.60;;;;;;;;;;5087902;28;20593;-69
2023/08/02 07:16:04;;;;;;;5.68;3.03;;;;;;;;;;5088437;28;20055;-69
2023/08/02 07:18:31;;;;;;;9.13;3.50;;;;;;;;;;5089966;28;20566;-69
2023/08/02 07:21:04;;;;;;;7.18;2.70;;;;;;;;;;5088398;28;20055;-69
2023/08/02 07:23:32;;;;;;;9.27;3.10;;;;;;;;;;5089798;28;20055;-70
2023/08/02 07:26:00;;;;;;;7.50;3.03;;;;;;;;;;5077917;28;20053;-70
2023/08/02 07:28:27;;;;;;;8.07;2.90;;;;;;;;;;5090483;28;20048;-69
2023/08/02 07:30:54;;;;;;;8.70;3.47;;;;;;;;;;5085613;28;20503;-69
2023/08/02 07:33:21;;;;;;;7.55;3.20;;;;;;;;;;5081149;28;20084;-69
2023/08/02 07:35:49;;;;;;;8.18;3.10;;;;;;;;;;5085238;28;20051;-69
2023/08/02 07:38:16;;;;;;;9.63;3.03;;;;;;;;;;5078424;28;20044;-69
2023/08/02 07:40:45;;;;;;;6.85;3.05;;;;;;;;;;5086561;28;20041;-69
2023/08/02 07:43:13;;;;;;;6.47;2.65;;;;;;;;;;5086306;28;20131;-70
2023/08/02 07:45:40;;;;;;;10.90;2.90;;;;;;;;;;5089790;28;20058;-69
2023/08/02 07:48:07;;;;;;;9.13;3.00;;;;;;;;;;5085487;28;20051;-69
2023/08/02 07:50:35;;;;;;;7.82;2.95;;;;;;;;;;5089993;28;20137;-69
2023/08/02 07:53:02;;;;;;;12.57;2.78;;;;;;;;;;5087304;28;20048;-69
2023/08/02 07:55:30;;;;;;;7.93;2.78;;;;;;;;;;5089369;28;20067;-69
2023/08/02 07:57:58;;;;;;;7.28;2.60;;;;;;;;;;5068352;28;20142;-69
2023/08/02 08:00:26;;;;;;;6.63;2.35;;;;;;;;;;5087354;28;20055;-69
2023/08/02 08:02:53;;;;;;;9.52;2.47;;;;;;;;;;5087019;28;20059;-68
2023/08/02 08:05:20;;;;;;;8.45;2.63;;;;;;;;;;5084951;28;20071;-69
2023/08/02 08:07:47;;;;;;;5.85;3.00;;;;;;;;;;5086745;28;20062;-68
2023/08/02 08:10:15;;;;;;;7.30;2.70;;;;;;;;;;5066687;28;20051;-68
2023/08/02 08:12:42;;;;;;;6.00;2.55;;;;;;;;;;5084711;28;20059;-68
2023/08/02 08:15:11;;;;;;;4.63;2.60;;;;;;;;;;5086366;28;20411;-68
2023/08/02 08:17:38;;;;;;;5.38;2.63;;;;;;;;;;5085055;28;20060;-68
2023/08/02 08:20:06;;;;;;;6.75;3.00;;;;;;;;;;5087718;28;20052;-68
2023/08/02 08:22:33;;;;;;;7.20;2.70;;;;;;;;;;5088145;28;20040;-68
2023/08/02 08:25:00;;;;;;;7.60;2.72;;;;;;;;;;5065247;28;20383;-68
2023/08/02 08:27:27;;;;;;;5.35;2.42;;;;;;;;;;5068494;28;20051;-68
2023/08/02 08:29:55;;;;;;;6.07;2.90;;;;;;;;;;5089470;28;20063;-68
2023/08/02 08:32:26;;;;;;;6.20;2.65;;;;;;;;;;5069663;28;20051;-68
2023/08/02 08:34:55;;;;;;;8.13;2.83;;;;;;;;;;5076648;28;20499;-68
2023/08/02 08:37:22;;;;;;;3.65;1.92;;;;;;;;;;5085561;28;20059;-68
2023/08/02 08:39:49;;;;;;;5.35;2.25;;;;;;;;;;5082987;28;20043;-68
2023/08/02 08:42:16;;;;;;;3.83;2.20;;;;;;;;;;5069863;28;20051;-69
2023/08/02 08:44:44;;;;;;;6.55;2.30;;;;;;;;;;5083887;28;20052;-68
2023/08/02 08:47:11;;;;;;;4.20;1.90;;;;;;;;;;5088193;28;20156;-69
2023/08/02 08:49:40;;;;;;;11.50;2.05;;;;;;;;;;5087505;28;20056;-69
2023/08/02 08:52:12;;;;;;;4.05;2.05;;;;;;;;;;5077935;28;20043;-69
2023/08/02 08:54:40;;;;;;;3.80;1.83;;;;;;;;;;5061924;28;20101;-69
2023/08/02 08:57:09;;;;;;;7.68;2.10;;;;;;;;;;5086644;28;20384;-68
2023/08/02 08:59:37;;;;;;;6.78;2.38;;;;;;;;;;5086963;28;20059;-69
2023/08/02 09:02:05;;;;;;;5.80;1.92;;;;;;;;;;5088044;28;20052;-68
2023/08/02 09:04:33;;;;;;;4.53;2.00;;;;;;;;;;5068657;28;20133;-68
2023/08/02 09:07:02;;;;;;;2.83;1.92;;;;;;;;;;5083311;28;20049;-68
2023/08/02 09:09:29;;;;;;;4.05;2.03;;;;;;;;;;5084175;28;20054;-68
2023/08/02 09:11:57;;;;;;;3.38;2.08;;;;;;;;;;5086850;28;20075;-68
2023/08/02 09:14:24;;;;;;;7.70;2.20;;;;;;;;;;5087537;28;20064;-68
2023/08/02 09:17:01;;;;;;;4.85;1.92;;;;;;;;;;5085735;28;20091;-69
2023/08/02 09:19:29;;;;;;;5.25;2.10;;;;;;;;;;5086247;28;20144;-68
2023/08/02 09:22:06;;;;;;;8.25;1.88;;;;;;;;;;5087836;28;20044;-68
2023/08/02 09:24:34;;;;;;;5.07;1.90;;;;;;;;;;5087153;28;21397;-69
2023/08/02 09:27:02;;;;;;;4.95;2.00;;;;;;;;;;5069220;28;20143;-69
2023/08/02 09:29:43;;;;;;;3.42;1.90;;;;;;;;;;5086141;28;21060;-69
2023/08/02 09:32:11;;;;;;;3.72;2.17;;;;;;;;;;5080167;28;20052;-68
2023/08/02 09:34:46;;;;;;;3.15;2.13;;;;;;;;;;5088458;28;20060;-68
2023/08/02 09:37:15;;;;;;;6.05;2.38;;;;;;;;;;5073128;28;20082;-68
2023/08/02 09:39:49;;;;;;;4.90;2.40;;;;;;;;;;5087242;28;20043;-68
2023/08/02 09:42:17;;;;;;;4.88;2.40;;;;;;;;;;5081239;28;20471;-68
2023/08/02 09:44:52;;;;;;;6.60;2.25;;;;;;;;;;5082687;28;20052;-68
2023/08/02 09:47:19;;;;;;;4.60;2.70;;;;;;;;;;5086870;28;20055;-69
2023/08/02 09:50:02;;;;;;;4.18;2.55;;;;;;;;;;5086157;28;20044;-69
2023/08/02 09:52:31;;;;;;;4.05;2.50;;;;;;;;;;5086235;28;20074;-68
2023/08/02 09:54:58;;;;;;;4.03;2.47;;;;;;;;;;5085061;28;20040;-69
2023/08/02 09:57:26;;;;;;;5.10;2.42;;;;;;;;;;5087174;28;20043;-69
2023/08/02 09:59:54;;;;;;;3.50;2.35;;;;;;;;;;5086403;28;20055;-69
2023/08/02 10:02:24;;;;;;;3.42;2.40;;;;;;;;;;5085395;28;20056;-69
2023/08/02 10:04:53;;;;;;;5.15;2.90;;;;;;;;;;5079202;28;20040;-69
2023/08/02 10:07:22;;;;;;;5.30;2.85;;;;;;;;;;5064371;28;20059;-69
2023/08/02 10:09:51;;;;;;;5.00;3.00;;;;;;;;;;5077794;28;20052;-69
2023/08/02 10:12:18;;;;;;;3.67;2.70;;;;;;;;;;5082251;28;20047;-69
2023/08/02 10:14:47;;;;;;;3.85;2.58;;;;;;;;;;5085585;28;20164;-69
2023/08/02 10:17:15;;;;;;;5.00;2.40;;;;;;;;;;5076914;28;20402;-69
2023/08/02 10:19:42;;;;;;;4.10;2.75;;;;;;;;;;5080523;28;20049;-70
2023/08/02 10:22:10;;;;;;;4.78;2.83;;;;;;;;;;5082861;28;20048;-69
2023/08/02 10:24:37;;;;;;;2.90;2.45;;;;;;;;;;5077736;28;20048;-70
2023/08/02 10:27:07;;;;;;;2.72;2.13;;;;;;;;;;5084816;28;20060;-70
2023/08/02 10:29:35;;;;;;;4.18;2.15;;;;;;;;;;5081022;28;20054;-69
2023/08/02 10:32:11;;;;;;;2.55;1.83;;;;;;;;;;5084080;28;20044;-69
2023/08/02 10:34:46;;;;;;;2.75;2.08;;;;;;;;;;5083723;28;20105;-70
2023/08/02 10:37:14;;;;;;;5.22;1.92;;;;;;;;;;5084872;28;20055;-69
2023/08/02 10:39:54;;;;;;;2.97;1.80;;;;;;;;;;5086834;28;20693;-69
2023/08/02 10:42:26;;;;;;;4.82;1.70;;;;;;;;;;5091638;28;20044;-70
2023/08/02 10:45:17;;;;;;;2.60;1.40;;;;;;;;;;5089268;28;20054;-70
2023/08/02 10:47:45;;;;;;;1.90;1.40;;;;;;;;;;5059657;28;20053;-70
2023/08/02 10:50:27;;;;;;;3.28;1.55;;;;;;;;;;5090593;28;20131;-70
2023/08/02 10:53:08;;;;;;;3.22;1.50;;;;;;;;;;5069639;28;20060;-69
2023/08/02 10:55:35;;;;;;;2.38;1.42;;;;;;;;;;5080185;28;20052;-69
2023/08/02 10:58:06;;;;;;;2.33;1.20;;;;;;;;;;5089602;28;20134;-69
2023/08/02 11:00:34;;;;;;;2.58;1.10;;;;;;;;;;5084384;28;20507;-69
2023/08/02 11:03:01;;;;;;;1.30;1.20;;;;;;;;;;5089505;28;20090;-70
2023/08/02 11:05:39;;;;;;;1.10;0.88;;;;;;;;;;5083236;28;20052;-70
2023/08/02 11:08:07;;;;;;;3.58;1.00;;;;;;;;;;5070384;28;20396;-70
2023/08/02 11:10:35;;;;;;;1.20;0.70;;;;;;;;;;5087135;28;20109;-69
2023/08/02 11:13:04;;;;;;;2.10;1.08;;;;;;;;;;5087508;28;20127;-69
2023/08/02 11:15:32;;;;;;;2.35;1.13;;;;;;;;;;5084952;28;20044;-69
2023/08/02 11:18:00;;;;;;;1.33;1.10;;;;;;;;;;5087765;28;20405;-69
2023/08/02 11:20:30;;;;;;;1.63;1.17;;;;;;;;;;5087475;28;20040;-69
2023/08/02 11:22:58;;;;;;;1.95;1.17;;;;;;;;;;5080899;28;20045;-69
2023/08/02 11:25:25;;;;;;;4.70;1.52;;;;;;;;;;5087153;28;20068;-69
2023/08/02 11:28:02;;;;;;;1.67;1.33;;;;;;;;;;5088971;28;20055;-69
2023/08/02 11:30:31;;;;;;;2.17;1.10;;;;;;;;;;5089881;28;20048;-70
2023/08/02 11:32:58;;;;;;;1.65;0.90;;;;;;;;;;5090517;28;20083;-70
2023/08/02 11:35:26;;;;;;;1.60;1.05;;;;;;;;;;5088863;28;20123;-69
2023/08/02 11:37:53;;;;;;;2.13;1.40;;;;;;;;;;5086437;28;20051;-69
2023/08/02 11:40:20;;;;;;;1.83;1.30;;;;;;;;;;5088386;28;20058;-70
2023/08/02 11:42:50;;;;;;;2.63;1.38;;;;;;;;;;5081915;28;20044;-70
2023/08/02 11:45:28;;;;;;;2.22;0.82;;;;;;;;;;5084552;28;20080;-69
2023/08/02 11:47:57;;;;;;;0.95;0.77;;;;;;;;;;5089185;28;20040;-69
2023/08/02 11:50:25;;;;;;;1.20;0.80;;;;;;;;;;5088159;28;20048;-69
2023/08/02 11:52:52;;;;;;;1.17;0.90;;;;;;;;;;5088065;28;20711;-68
2023/08/02 11:55:21;;;;;;;1.40;0.80;;;;;;;;;;5088586;28;20414;-68
2023/08/02 11:57:49;;;;;;;1.00;0.90;;;;;;;;;;5087501;28;20052;-68
2023/08/02 12:00:17;;;;;;;1.13;1.00;;;;;;;;;;5067161;28;20067;-69
2023/08/02 12:02:46;;;;;;;2.45;0.98;;;;;;;;;;5077783;28;20062;-69
2023/08/02 12:05:21;;;;;;;1.73;1.00;;;;;;;;;;5087109;28;20048;-69
2023/08/02 12:07:49;;;;;;;1.40;1.10;;;;;;;;;;5085956;28;20414;-69
2023/08/02 12:10:34;;;;;;;1.85;0.90;;;;;;;;;;5082763;28;20086;-68
2023/08/02 12:13:08;;;;;;;2.03;1.20;;;;;;;;;;5087091;28;20101;-69
2023/08/02 12:15:35;;;;;;;2.30;1.20;;;;;;;;;;5088745;28;20079;-69
2023/08/02 12:18:04;;;;;;;1.83;1.50;;;;;;;;;;5085282;28;20060;-69
2023/08/02 12:20:33;;;;;;;40.60;4.53;;;;;;;;;;5084135;28;20040;-69
2023/08/02 12:23:00;;;;;;;1.95;1.67;;;;;;;;;;5086743;28;20135;-69
2023/08/02 12:25:27;;;;;;;2.03;1.65;;;;;;;;;;5064861;28;20052;-69
2023/08/02 12:28:04;;;;;;;2.42;1.70;;;;;;;;;;5082423;28;20052;-69
2023/08/02 12:30:32;;;;;;;3.38;2.15;;;;;;;;;;5082002;28;20457;-69
2023/08/02 12:32:59;;;;;;;3.17;2.53;;;;;;;;;;5083592;28;20041;-69
2023/08/02 12:35:26;;;;;;;2.40;1.67;;;;;;;;;;5086763;28;20048;-69
2023/08/02 12:37:55;;;;;;;1.40;1.30;;;;;;;;;;5084837;28;20044;-69
2023/08/02 12:40:22;;;;;;;2.40;1.67;;;;;;;;;;5083236;28;20067;-69
2023/08/02 12:42:49;;;;;;;2.70;1.70;;;;;;;;;;5088516;28;20077;-69
2023/08/02 12:45:17;;;;;;;1.92;1.50;;;;;;;;;;5080880;28;20427;-69
2023/08/02 12:47:44;;;;;;;2.90;1.30;;;;;;;;;;5087904;28;20499;-68
2023/08/02 12:50:11;;;;;;;1.88;1.60;;;;;;;;;;5084640;28;20048;-69
2023/08/02 12:52:39;;;;;;;2.88;1.02;;;;;;;;;;5085460;28;20058;-69
2023/08/02 12:55:08;;;;;;;2.00;1.13;;;;;;;;;;5087438;28;20389;-69
2023/08/02 12:57:35;;;;;;;3.25;1.10;;;;;;;;;;5087572;28;20605;-69
2023/08/02 13:00:04;;;;;;;1.20;0.73;;;;;;;;;;5086226;28;20044;-69
2023/08/02 13:02:31;;;;;;;2.42;0.98;;;;;;;;;;5080286;28;20502;-69
2023/08/02 13:04:59;;;;;;;2.67;0.80;;;;;;;;;;5084891;28;20058;-69
2023/08/02 13:07:26;;;;;;;1.42;0.80;;;;;;;;;;5084466;28;20048;-68
2023/08/02 13:09:53;;;;;;;7.07;0.73;;;;;;;;;;5085197;28;20138;-70
2023/08/02 13:12:22;;;;;;;2.38;0.98;;;;;;;;;;5083390;28;20414;-69
2023/08/02 13:14:49;;;;;;;2.20;0.80;;;;;;;;;;5075450;28;20060;-69
2023/08/02 13:17:19;;;;;;;2.60;0.93;;;;;;;;;;5087148;28;20055;-70
2023/08/02 13:19:47;;;;;;;2.65;0.80;;;;;;;;;;5086818;28;20048;-68
2023/08/02 13:22:15;;;;;;;5.18;1.15;;;;;;;;;;5083173;28;20117;-70
2023/08/02 13:24:42;;;;;;;3.75;1.00;;;;;;;;;;5084078;28;20048;-70
2023/08/02 13:27:10;;;;;;;2.20;0.63;;;;;;;;;;5066014;28;20126;-69
2023/08/02 13:29:38;;;;;;;5.15;1.00;;;;;;;;;;5085043;28;20056;-70
2023/08/02 13:32:06;;;;;;;2.20;0.77;;;;;;;;;;5086993;28;20051;-70
2023/08/02 13:34:33;;;;;;;2.80;0.70;;;;;;;;;;5087178;28;20624;-69
2023/08/02 13:37:00;;;;;;;6.10;0.80;;;;;;;;;;5083009;28;20055;-70
2023/08/02 13:39:28;;;;;;;2.60;0.80;;;;;;;;;;5086336;28;20048;-68
2023/08/02 13:41:55;;;;;;;4.18;0.90;;;;;;;;;;5083451;28;20040;-69
2023/08/02 13:44:22;;;;;;;4.15;0.98;;;;;;;;;;5079589;28;20075;-70
2023/08/02 13:46:51;;;;;;;4.80;1.20;;;;;;;;;;5083006;28;20518;-71
2023/08/02 13:49:18;;;;;;;5.30;1.20;;;;;;;;;;5086454;28;20052;-70
2023/08/02 13:51:45;;;;;;;5.97;1.30;;;;;;;;;;5085763;28;20050;-70
2023/08/02 13:54:13;;;;;;;4.45;0.95;;;;;;;;;;5083553;28;20036;-69
2023/08/02 13:56:40;;;;;;;4.30;1.08;;;;;;;;;;5083019;28;20052;-70
2023/08/02 13:59:07;;;;;;;9.77;1.13;;;;;;;;;;5085010;28;20054;-70
2023/08/02 14:01:34;;;;;;;5.35;1.23;;;;;;;;;;5079115;28;20052;-69
2023/08/02 14:04:04;;;;;;;4.07;1.05;;;;;;;;;;5084797;28;20045;-69
2023/08/02 14:06:31;;;;;;;5.95;1.05;;;;;;;;;;5081638;28;20040;-69
2023/08/02 14:08:59;;;;;;;4.60;1.20;;;;;;;;;;5077234;28;20055;-70
2023/08/02 14:11:26;;;;;;;4.88;1.10;;;;;;;;;;5080761;28;20055;-68
2023/08/02 14:13:53;;;;;;;9.73;1.30;;;;;;;;;;5083124;28;20056;-68
2023/08/02 14:16:20;;;;;;;5.28;1.10;;;;;;;;;;5083655;28;20059;-69
2023/08/02 14:18:48;;;;;;;7.50;1.50;;;;;;;;;;5087031;28;20487;-69
2023/08/02 14:21:16;;;;;;;3.38;1.20;;;;;;;;;;5069524;28;20569;-69
2023/08/02 14:23:44;;;;;;;9.80;1.73;;;;;;;;;;5086723;28;20051;-70
2023/08/02 14:26:11;;;;;;;6.45;1.35;;;;;;;;;;5082784;28;20052;-69
2023/08/02 14:28:38;;;;;;;5.88;1.15;;;;;;;;;;5081870;28;20060;-69
2023/08/02 14:31:05;;;;;;;6.20;1.40;;;;;;;;;;5088449;28;20048;-68
2023/08/02 14:33:33;;;;;;;5.35;1.30;;;;;;;;;;5088959;28;20040;-69
2023/08/02 14:36:00;;;;;;;6.28;1.10;;;;;;;;;;5087470;28;20052;-69
2023/08/02 14:38:28;;;;;;;6.45;1.35;;;;;;;;;;5087388;28;20372;-70
2023/08/02 14:40:56;;;;;;;5.85;1.25;;;;;;;;;;5079911;28;20044;-70
2023/08/02 14:43:23;;;;;;;5.28;1.17;;;;;;;;;;5084521;28;20505;-69
2023/08/02 14:45:50;;;;;;;9.63;1.60;;;;;;;;;;5067008;28;20059;-69
2023/08/02 14:48:18;;;;;;;5.68;1.48;;;;;;;;;;5087994;28;20044;-69